createdAt,value
2018-08-28T00:00:07.917Z,101083.05
2018-08-28T00:00:29.671Z,101082.33
2018-08-28T00:00:51.430Z,101081.59
2018-08-28T00:01:18.458Z,101078.80
2018-08-28T00:01:40.244Z,101082.58
2018-08-28T00:02:01.999Z,101082.97
2018-08-28T00:02:23.762Z,101084.13
2018-08-28T00:02:45.556Z,101081.52
2018-08-28T00:03:07.311Z,101081.91
2018-08-28T00:03:29.066Z,101085.97
2018-08-28T00:03:50.946Z,101085.44
2018-08-28T00:04:12.713Z,101084.66
2018-08-28T00:04:34.507Z,101086.89
2018-08-28T00:04:56.271Z,101079.83
2018-08-28T00:05:18.051Z,101088.83
2018-08-28T00:05:39.824Z,101088.58
2018-08-28T00:06:01.597Z,101086.89
2018-08-28T00:06:23.382Z,101086.11
2018-08-28T00:06:45.160Z,101085.58
2018-08-28T00:07:06.934Z,101087.95
2018-08-28T00:07:28.695Z,101081.42
2018-08-28T00:07:50.447Z,101089.44
2018-08-28T00:08:12.214Z,101090.42
2018-08-28T00:08:33.967Z,101090.80
2018-08-28T00:08:55.751Z,101090.27
2018-08-28T00:09:17.535Z,101090.42
2018-08-28T00:09:39.307Z,101089.11
2018-08-28T00:10:01.065Z,101087.42
2018-08-28T00:10:22.818Z,101090.03
2018-08-28T00:10:44.600Z,101091.34
2018-08-28T00:11:06.718Z,101089.88
2018-08-28T00:11:28.482Z,101093.27
2018-08-28T00:11:50.784Z,101093.27
2018-08-28T00:12:12.561Z,101092.11
2018-08-28T00:12:34.312Z,101093.42
2018-08-28T00:12:56.478Z,101091.86
2018-08-28T00:13:18.239Z,101093.95
2018-08-28T00:13:39.998Z,101099.31
2018-08-28T00:14:01.759Z,101094.66
2018-08-28T00:14:23.534Z,101091.86
2018-08-28T00:14:45.333Z,101096.17
2018-08-28T00:15:07.113Z,101096.17
2018-08-28T00:15:28.882Z,101097.09
2018-08-28T00:15:50.645Z,101093.70
2018-08-28T00:16:12.403Z,101095.58
2018-08-28T00:16:34.168Z,101097.41
2018-08-28T00:16:55.958Z,101096.64
2018-08-28T00:17:17.745Z,101097.27
2018-08-28T00:17:39.535Z,101098.86
2018-08-28T00:18:01.296Z,101095.01
2018-08-28T00:18:23.081Z,101099.31
2018-08-28T00:18:44.841Z,101094.87
2018-08-28T00:19:06.608Z,101095.78
2018-08-28T00:19:28.376Z,101094.27
2018-08-28T00:19:50.175Z,101103.17
2018-08-28T00:20:11.933Z,101100.02
2018-08-28T00:20:33.718Z,101099.88
2018-08-28T00:20:55.464Z,101101.39
2018-08-28T00:21:17.226Z,101098.78
2018-08-28T00:21:38.972Z,101096.80
2018-08-28T00:22:00.745Z,101099.03
2018-08-28T00:22:22.507Z,101098.64
2018-08-28T00:22:44.271Z,101101.64
2018-08-28T00:23:06.029Z,101102.41
2018-08-28T00:23:27.786Z,101095.50
2018-08-28T00:23:49.575Z,101099.03
2018-08-28T00:24:11.343Z,101103.62
2018-08-28T00:24:33.099Z,101096.56
2018-08-28T00:24:54.896Z,101101.78
2018-08-28T00:25:16.676Z,101099.31
2018-08-28T00:25:38.455Z,101104.54
2018-08-28T00:26:00.211Z,101104.72
2018-08-28T00:26:21.965Z,101101.01
2018-08-28T00:26:43.724Z,101100.23
2018-08-28T00:27:05.568Z,101101.54
2018-08-28T00:27:27.359Z,101109.38
2018-08-28T00:27:49.160Z,101106.77
2018-08-28T00:28:10.932Z,101104.01
2018-08-28T00:28:32.687Z,101106.48
2018-08-28T00:28:54.450Z,101108.41
2018-08-28T00:29:16.203Z,101105.56
2018-08-28T00:29:37.972Z,101112.09
2018-08-28T00:29:59.786Z,101108.95
2018-08-28T00:30:21.548Z,101111.70
2018-08-28T00:30:43.338Z,101110.01
2018-08-28T00:31:05.137Z,101107.64
2018-08-28T00:31:26.896Z,101116.01
2018-08-28T00:31:48.669Z,101112.09
2018-08-28T00:32:10.455Z,101110.40
2018-08-28T00:32:32.228Z,101112.23
2018-08-28T00:32:54.015Z,101108.84
2018-08-28T00:33:15.875Z,101115.37
2018-08-28T00:33:37.628Z,101116.15
2018-08-28T00:33:59.391Z,101117.98
2018-08-28T00:34:21.163Z,101114.60
2018-08-28T00:34:42.924Z,101115.37
2018-08-28T00:35:04.703Z,101115.37
2018-08-28T00:35:26.493Z,101116.30
2018-08-28T00:35:48.275Z,101119.78
2018-08-28T00:36:10.037Z,101116.11
2018-08-28T00:36:31.793Z,101124.09
2018-08-28T00:36:53.554Z,101121.09
2018-08-28T00:37:15.348Z,101119.78
2018-08-28T00:37:37.138Z,101117.17
2018-08-28T00:37:58.971Z,101120.70
2018-08-28T00:38:20.731Z,101119.39
2018-08-28T00:38:42.513Z,101121.09
2018-08-28T00:39:04.630Z,101122.78
2018-08-28T00:39:26.395Z,101120.02
2018-08-28T00:39:48.159Z,101125.39
2018-08-28T00:40:09.959Z,101120.55
2018-08-28T00:40:31.737Z,101120.41
2018-08-28T00:40:53.511Z,101120.41
2018-08-28T00:41:15.291Z,101122.64
2018-08-28T00:41:37.067Z,101128.15
2018-08-28T00:41:58.878Z,101125.92
2018-08-28T00:42:20.623Z,101123.84
2018-08-28T00:42:42.390Z,101123.31
2018-08-28T00:43:04.159Z,101129.45
2018-08-28T00:43:25.919Z,101125.15
2018-08-28T00:43:47.680Z,101124.77
2018-08-28T00:44:09.441Z,101124.23
2018-08-28T00:44:31.203Z,101122.92
2018-08-28T00:44:52.975Z,101125.15
2018-08-28T00:45:14.802Z,101127.23
2018-08-28T00:45:36.580Z,101122.39
2018-08-28T00:45:58.359Z,101126.45
2018-08-28T00:46:20.113Z,101125.53
2018-08-28T00:46:41.876Z,101132.59
2018-08-28T00:47:03.637Z,101129.45
2018-08-28T00:47:25.401Z,101132.06
2018-08-28T00:47:47.159Z,101127.77
2018-08-28T00:48:08.922Z,101132.36
2018-08-28T00:48:30.696Z,101132.59
2018-08-28T00:48:52.457Z,101131.68
2018-08-28T00:49:14.206Z,101130.23
2018-08-28T00:49:35.981Z,101137.14
2018-08-28T00:49:57.791Z,101136.47
2018-08-28T00:50:19.567Z,101139.38
2018-08-28T00:50:41.341Z,101141.98
2018-08-28T00:51:03.137Z,101140.53
2018-08-28T00:51:24.902Z,101141.06
2018-08-28T00:51:46.656Z,101136.61
2018-08-28T00:52:08.455Z,101141.84
2018-08-28T00:52:30.282Z,101140.77
2018-08-28T00:52:52.030Z,101140.39
2018-08-28T00:53:13.799Z,101142.52
2018-08-28T00:53:35.577Z,101144.06
2018-08-28T00:53:57.383Z,101145.23
2018-08-28T00:54:19.178Z,101139.08
2018-08-28T00:54:40.944Z,101144.06
2018-08-28T00:55:02.717Z,101144.59
2018-08-28T00:55:24.512Z,101139.61
2018-08-28T00:55:46.273Z,101141.30
2018-08-28T00:56:08.085Z,101141.84
2018-08-28T00:56:29.862Z,101142.52
2018-08-28T00:56:51.643Z,101144.74
2018-08-28T00:57:13.416Z,101149.58
2018-08-28T00:57:35.204Z,101142.52
2018-08-28T00:57:56.972Z,101142.66
2018-08-28T00:58:18.751Z,101145.80
2018-08-28T00:58:40.529Z,101145.42
2018-08-28T00:59:02.545Z,101141.36
2018-08-28T00:59:24.305Z,101146.52
2018-08-28T00:59:46.089Z,101150.05
2018-08-28T01:00:07.979Z,101149.66
2018-08-28T01:00:29.784Z,101153.44
2018-08-28T01:00:51.555Z,101143.34
2018-08-28T01:01:13.353Z,101148.03
2018-08-28T01:01:35.132Z,101146.19
2018-08-28T01:01:56.884Z,101143.05
2018-08-28T01:02:18.675Z,101144.74
2018-08-28T01:02:40.489Z,101143.97
2018-08-28T01:03:02.264Z,101149.97
2018-08-28T01:03:24.028Z,101149.19
2018-08-28T01:03:45.790Z,101144.50
2018-08-28T01:04:07.539Z,101145.27
2018-08-28T01:04:29.305Z,101144.74
2018-08-28T01:04:51.061Z,101154.03
2018-08-28T01:05:12.842Z,101147.36
2018-08-28T01:05:34.627Z,101149.05
2018-08-28T01:05:56.420Z,101155.05
2018-08-28T01:06:18.199Z,101150.98
2018-08-28T01:06:39.966Z,101153.06
2018-08-28T01:07:01.727Z,101151.76
2018-08-28T01:07:23.520Z,101150.30
2018-08-28T01:07:45.302Z,101150.45
2018-08-28T01:08:07.065Z,101153.59
2018-08-28T01:08:28.851Z,101148.61
2018-08-28T01:08:50.636Z,101149.53
2018-08-28T01:09:12.396Z,101151.08
2018-08-28T01:09:34.188Z,101151.08
2018-08-28T01:09:55.967Z,101146.63
2018-08-28T01:10:17.719Z,101150.37
2018-08-28T01:10:39.514Z,101148.53
2018-08-28T01:11:01.299Z,101148.32
2018-08-28T01:11:23.047Z,101152.39
2018-08-28T01:11:44.816Z,101153.69
2018-08-28T01:12:06.569Z,101149.92
2018-08-28T01:12:28.343Z,101153.59
2018-08-28T01:12:50.120Z,101149.29
2018-08-28T01:13:11.892Z,101147.84
2018-08-28T01:13:33.682Z,101156.59
2018-08-28T01:13:55.446Z,101151.76
2018-08-28T01:14:17.498Z,101146.53
2018-08-28T01:14:39.282Z,101144.84
2018-08-28T01:15:01.035Z,101154.75
2018-08-28T01:15:22.795Z,101154.61
2018-08-28T01:15:44.582Z,101154.37
2018-08-28T01:16:06.379Z,101153.06
2018-08-28T01:16:28.151Z,101157.37
2018-08-28T01:16:49.910Z,101153.84
2018-08-28T01:17:11.676Z,101154.22
2018-08-28T01:17:33.461Z,101158.91
2018-08-28T01:17:55.226Z,101155.59
2018-08-28T01:18:17.012Z,101153.94
2018-08-28T01:18:38.792Z,101161.38
2018-08-28T01:19:00.599Z,101161.52
2018-08-28T01:19:22.390Z,101158.14
2018-08-28T01:19:44.152Z,101159.83
2018-08-28T01:20:06.035Z,101157.61
2018-08-28T01:20:27.792Z,101159.83
2018-08-28T01:20:49.577Z,101158.38
2018-08-28T01:21:11.573Z,101156.45
2018-08-28T01:21:33.350Z,101162.45
2018-08-28T01:21:55.155Z,101160.75
2018-08-28T01:22:16.965Z,101164.67
2018-08-28T01:22:39.025Z,101161.67
2018-08-28T01:23:00.778Z,101160.90
2018-08-28T01:23:22.572Z,101157.90
2018-08-28T01:23:44.414Z,101164.04
2018-08-28T01:24:06.189Z,101164.96
2018-08-28T01:24:27.957Z,101162.73
2018-08-28T01:24:49.740Z,101166.66
2018-08-28T01:25:11.527Z,101160.52
2018-08-28T01:25:33.308Z,101164.81
2018-08-28T01:25:55.121Z,101161.28
2018-08-28T01:26:16.909Z,101163.75
2018-08-28T01:26:38.715Z,101165.73
2018-08-28T01:27:00.480Z,101167.04
2018-08-28T01:27:22.244Z,101168.49
2018-08-28T01:27:44.009Z,101164.96
2018-08-28T01:28:05.787Z,101165.20
2018-08-28T01:28:27.551Z,101167.81
2018-08-28T01:28:49.341Z,101166.13
2018-08-28T01:29:11.101Z,101165.59
2018-08-28T01:29:32.868Z,101171.34
2018-08-28T01:29:54.624Z,101169.75
2018-08-28T01:30:20.649Z,101172.75
2018-08-28T01:30:42.430Z,101164.52
2018-08-28T01:31:04.218Z,101166.75
2018-08-28T01:31:25.996Z,101169.66
2018-08-28T01:31:47.785Z,101167.57
2018-08-28T01:32:09.610Z,101167.57
2018-08-28T01:32:31.439Z,101169.41
2018-08-28T01:32:53.222Z,101167.81
2018-08-28T01:33:15.002Z,101171.73
2018-08-28T01:33:36.771Z,101172.27
2018-08-28T01:33:58.541Z,101170.14
2018-08-28T01:34:20.332Z,101175.12
2018-08-28T01:34:42.102Z,101174.05
2018-08-28T01:35:03.890Z,101172.89
2018-08-28T01:35:25.648Z,101178.80
2018-08-28T01:35:47.428Z,101174.73
2018-08-28T01:36:09.223Z,101172.66
2018-08-28T01:36:30.988Z,101174.73
2018-08-28T01:36:52.773Z,101174.88
2018-08-28T01:37:14.585Z,101181.94
2018-08-28T01:37:36.332Z,101178.02
2018-08-28T01:37:58.133Z,101179.33
2018-08-28T01:38:19.916Z,101175.02
2018-08-28T01:38:41.674Z,101181.55
2018-08-28T01:39:03.808Z,101172.80
2018-08-28T01:39:25.567Z,101175.55
2018-08-28T01:39:47.335Z,101181.45
2018-08-28T01:40:09.108Z,101178.17
2018-08-28T01:40:31.397Z,101175.41
2018-08-28T01:40:53.178Z,101183.63
2018-08-28T01:41:15.022Z,101173.95
2018-08-28T01:41:36.819Z,101179.19
2018-08-28T01:41:58.611Z,101176.57
2018-08-28T01:42:23.174Z,101180.48
2018-08-28T01:42:44.920Z,101180.88
2018-08-28T01:43:12.154Z,101183.73
2018-08-28T01:43:33.972Z,101183.20
2018-08-28T01:43:55.738Z,101183.34
2018-08-28T01:44:17.499Z,101182.18
2018-08-28T01:44:39.278Z,101174.34
2018-08-28T01:45:01.048Z,101181.11
2018-08-28T01:45:22.828Z,101182.27
2018-08-28T01:45:44.570Z,101184.89
2018-08-28T01:46:06.335Z,101183.73
2018-08-28T01:46:28.130Z,101183.34
2018-08-28T01:46:49.903Z,101184.41
2018-08-28T01:47:11.683Z,101189.00
2018-08-28T01:47:33.443Z,101187.02
2018-08-28T01:47:55.214Z,101189.77
2018-08-28T01:48:16.981Z,101180.10
2018-08-28T01:48:38.749Z,101187.02
2018-08-28T01:49:00.529Z,101192.77
2018-08-28T01:49:22.294Z,101188.17
2018-08-28T01:49:44.053Z,101189.48
2018-08-28T01:50:05.811Z,101190.02
2018-08-28T01:50:27.594Z,101186.34
2018-08-28T01:50:50.001Z,101184.64
2018-08-28T01:51:11.780Z,101184.11
2018-08-28T01:51:34.249Z,101189.02
2018-08-28T01:51:56.048Z,101191.23
2018-08-28T01:52:17.828Z,101194.95
2018-08-28T01:52:39.602Z,101188.80
2018-08-28T01:53:01.384Z,101192.87
2018-08-28T01:53:23.365Z,101190.64
2018-08-28T01:53:45.143Z,101188.95
2018-08-28T01:54:06.911Z,101194.32
2018-08-28T01:54:28.697Z,101193.94
2018-08-28T01:54:50.482Z,101190.94
2018-08-28T01:55:12.244Z,101192.63
2018-08-28T01:55:34.005Z,101193.41
2018-08-28T01:55:55.814Z,101192.87
2018-08-28T01:56:17.616Z,101193.41
2018-08-28T01:56:39.504Z,101195.39
2018-08-28T01:57:01.283Z,101192.92
2018-08-28T01:57:23.036Z,101192.92
2018-08-28T01:57:44.804Z,101193.84
2018-08-28T01:58:06.565Z,101193.69
2018-08-28T01:58:28.348Z,101199.84
2018-08-28T01:58:50.098Z,101195.92
2018-08-28T01:59:11.874Z,101192.00
2018-08-28T01:59:35.669Z,101187.16
2018-08-28T01:59:57.430Z,101195.53
2018-08-28T02:00:20.457Z,101192.39
2018-08-28T02:00:42.226Z,101198.14
2018-08-28T02:01:04.841Z,101195.14
2018-08-28T02:01:28.587Z,101197.75
2018-08-28T02:01:50.970Z,101197.91
2018-08-28T02:02:13.560Z,101193.84
2018-08-28T02:02:36.608Z,101195.30
2018-08-28T02:02:58.379Z,101202.20
2018-08-28T02:03:20.159Z,101201.82
2018-08-28T02:03:41.918Z,101199.74
2018-08-28T02:04:04.326Z,101200.66
2018-08-28T02:04:27.332Z,101200.91
2018-08-28T02:04:49.099Z,101201.44
2018-08-28T02:05:12.284Z,101201.20
2018-08-28T02:05:34.991Z,101197.66
2018-08-28T02:05:57.976Z,101197.45
2018-08-28T02:06:20.997Z,101201.77
2018-08-28T02:06:44.519Z,101196.89
2018-08-28T02:07:07.205Z,101197.28
2018-08-28T02:07:34.365Z,101192.05
2018-08-28T02:07:56.125Z,101198.05
2018-08-28T02:08:17.902Z,101201.77
2018-08-28T02:08:39.685Z,101198.58
2018-08-28T02:09:01.473Z,101196.16
2018-08-28T02:09:23.243Z,101197.45
2018-08-28T02:09:45.736Z,101199.30
2018-08-28T02:10:07.876Z,101189.77
2018-08-28T02:10:30.463Z,101196.54
2018-08-28T02:10:56.461Z,101194.28
2018-08-28T02:11:22.060Z,101200.07
2018-08-28T02:11:46.052Z,101200.81
2018-08-28T02:12:08.510Z,101203.60
2018-08-28T02:12:31.046Z,101194.66
2018-08-28T02:12:54.678Z,101198.20
2018-08-28T02:13:16.492Z,101200.45
2018-08-28T02:13:38.247Z,101199.16
2018-08-28T02:14:00.017Z,101195.58
2018-08-28T02:14:21.767Z,101197.45
2018-08-28T02:14:43.527Z,101200.45
2018-08-28T02:15:05.289Z,101196.89
2018-08-28T02:15:27.048Z,101198.77
2018-08-28T02:15:48.826Z,101199.69
2018-08-28T02:16:10.586Z,101207.66
2018-08-28T02:16:32.357Z,101203.75
2018-08-28T02:16:54.139Z,101201.52
2018-08-28T02:17:15.936Z,101206.03
2018-08-28T02:17:37.933Z,101200.81
2018-08-28T02:17:59.710Z,101203.81
2018-08-28T02:18:21.487Z,101203.81
2018-08-28T02:18:43.263Z,101206.98
2018-08-28T02:19:05.042Z,101209.03
2018-08-28T02:19:26.800Z,101206.98
2018-08-28T02:19:48.554Z,101210.52
2018-08-28T02:20:10.336Z,101211.26
2018-08-28T02:20:32.099Z,101208.50
2018-08-28T02:20:53.864Z,101213.88
2018-08-28T02:21:15.692Z,101208.64
2018-08-28T02:21:37.446Z,101210.13
2018-08-28T02:21:59.223Z,101215.17
2018-08-28T02:22:21.005Z,101211.11
2018-08-28T02:22:42.776Z,101209.42
2018-08-28T02:23:04.567Z,101212.56
2018-08-28T02:23:26.315Z,101212.41
2018-08-28T02:23:48.075Z,101209.95
2018-08-28T02:24:09.885Z,101207.73
2018-08-28T02:24:31.635Z,101208.50
2018-08-28T02:24:53.442Z,101212.56
2018-08-28T02:25:15.233Z,101212.56
2018-08-28T02:25:36.999Z,101211.64
2018-08-28T02:25:58.777Z,101211.26
2018-08-28T02:26:20.539Z,101217.44
2018-08-28T02:26:42.482Z,101211.50
2018-08-28T02:27:04.248Z,101212.13
2018-08-28T02:27:26.139Z,101210.19
2018-08-28T02:27:47.945Z,101212.27
2018-08-28T02:28:09.747Z,101214.64
2018-08-28T02:28:31.511Z,101214.26
2018-08-28T02:28:53.279Z,101216.87
2018-08-28T02:29:15.050Z,101210.66
2018-08-28T02:29:36.821Z,101207.91
2018-08-28T02:29:58.602Z,101210.52
2018-08-28T02:30:20.373Z,101218.89
2018-08-28T02:30:42.151Z,101213.52
2018-08-28T02:31:03.929Z,101217.20
2018-08-28T02:31:25.708Z,101218.65
2018-08-28T02:31:47.484Z,101215.89
2018-08-28T02:32:09.257Z,101216.66
2018-08-28T02:32:31.067Z,101211.83
2018-08-28T02:32:52.850Z,101214.83
2018-08-28T02:33:14.612Z,101219.09
2018-08-28T02:33:36.495Z,101216.13
2018-08-28T02:33:58.174Z,101214.64
2018-08-28T02:34:19.940Z,101221.36
2018-08-28T02:34:41.698Z,101215.36
2018-08-28T02:35:03.474Z,101220.05
2018-08-28T02:35:25.250Z,101219.48
2018-08-28T02:35:47.027Z,101223.02
2018-08-28T02:36:09.068Z,101218.95
2018-08-28T02:36:30.845Z,101220.49
2018-08-28T02:36:52.625Z,101224.32
2018-08-28T02:37:14.374Z,101225.62
2018-08-28T02:37:36.181Z,101219.48
2018-08-28T02:37:57.950Z,101221.17
2018-08-28T02:38:19.719Z,101224.32
2018-08-28T02:38:41.482Z,101229.19
2018-08-28T02:39:03.367Z,101222.48
2018-08-28T02:39:25.154Z,101229.19
2018-08-28T02:39:46.932Z,101221.65
2018-08-28T02:40:08.688Z,101223.58
2018-08-28T02:40:31.001Z,101227.50
2018-08-28T02:40:52.769Z,101227.64
2018-08-28T02:41:14.557Z,101220.78
2018-08-28T02:41:36.325Z,101221.70
2018-08-28T02:41:58.080Z,101228.03
2018-08-28T02:42:19.849Z,101228.42
2018-08-28T02:42:41.641Z,101224.56
2018-08-28T02:43:03.407Z,101228.09
2018-08-28T02:43:25.174Z,101223.02
2018-08-28T02:43:46.932Z,101223.58
2018-08-28T02:44:08.687Z,101220.97
2018-08-28T02:44:30.446Z,101227.50
2018-08-28T02:44:52.657Z,101221.89
2018-08-28T02:45:14.424Z,101226.73
2018-08-28T02:45:36.197Z,101221.11
2018-08-28T02:45:58.779Z,101223.87
2018-08-28T02:46:20.535Z,101224.80
2018-08-28T02:46:42.304Z,101226.09
2018-08-28T02:47:32.264Z,101227.41
2018-08-28T02:47:54.078Z,101227.41
2018-08-28T02:48:15.860Z,101227.64
2018-08-28T02:48:37.643Z,101229.87
2018-08-28T02:48:59.418Z,101223.87
2018-08-28T02:49:21.195Z,101223.73
2018-08-28T02:49:42.969Z,101227.26
2018-08-28T02:50:04.767Z,101228.80
2018-08-28T02:50:26.600Z,101228.56
2018-08-28T02:50:48.384Z,101228.95
2018-08-28T02:51:10.154Z,101230.41
2018-08-28T02:51:31.921Z,101226.73
2018-08-28T02:51:53.691Z,101227.79
2018-08-28T02:52:15.473Z,101226.09
2018-08-28T02:52:37.234Z,101229.87
2018-08-28T02:52:59.047Z,101230.41
2018-08-28T02:53:20.808Z,101236.41
2018-08-28T02:53:42.576Z,101229.48
2018-08-28T02:54:04.352Z,101228.95
2018-08-28T02:54:26.111Z,101229.87
2018-08-28T02:54:47.879Z,101237.47
2018-08-28T02:55:09.655Z,101233.64
2018-08-28T02:55:31.440Z,101232.34
2018-08-28T02:55:53.215Z,101232.72
2018-08-28T02:56:15.024Z,101237.37
2018-08-28T02:56:36.741Z,101235.88
2018-08-28T02:56:58.484Z,101238.87
2018-08-28T02:57:20.247Z,101240.70
2018-08-28T02:57:42.011Z,101237.32
2018-08-28T02:58:03.790Z,101235.88
2018-08-28T02:58:25.550Z,101235.88
2018-08-28T02:58:48.242Z,101238.48
2018-08-28T02:59:10.021Z,101234.56
2018-08-28T02:59:31.791Z,101240.95
2018-08-28T02:59:53.552Z,101239.99
2018-08-28T03:00:15.325Z,101237.17
2018-08-28T03:00:37.108Z,101236.26
2018-08-28T03:00:58.871Z,101241.09
2018-08-28T03:01:20.626Z,101245.69
2018-08-28T03:01:42.498Z,101244.92
2018-08-28T03:02:04.256Z,101236.94
2018-08-28T03:02:32.599Z,101249.47
2018-08-28T03:02:54.437Z,101247.23
2018-08-28T03:03:16.196Z,101239.94
2018-08-28T03:03:37.943Z,101245.94
2018-08-28T03:03:59.743Z,101241.09
2018-08-28T03:04:21.528Z,101244.23
2018-08-28T03:04:43.295Z,101245.55
2018-08-28T03:05:05.069Z,101248.55
2018-08-28T03:05:26.829Z,101241.87
2018-08-28T03:05:48.585Z,101239.64
2018-08-28T03:06:10.335Z,101247.23
2018-08-28T03:06:32.089Z,101248.94
2018-08-28T03:06:53.851Z,101243.91
2018-08-28T03:07:15.603Z,101248.02
2018-08-28T03:07:37.388Z,101249.52
2018-08-28T03:07:59.149Z,101247.83
2018-08-28T03:08:20.922Z,101247.48
2018-08-28T03:08:42.684Z,101245.60
2018-08-28T03:09:04.462Z,101248.78
2018-08-28T03:09:26.241Z,101240.77
2018-08-28T03:09:47.993Z,101248.78
2018-08-28T03:10:09.764Z,101245.60
2018-08-28T03:10:31.519Z,101251.01
2018-08-28T03:10:53.281Z,101251.01
2018-08-28T03:11:15.063Z,101249.13
2018-08-28T03:11:36.857Z,101250.44
2018-08-28T03:11:58.680Z,101248.07
2018-08-28T03:12:20.443Z,101245.84
2018-08-28T03:12:42.210Z,101251.07
2018-08-28T03:13:03.970Z,101250.68
2018-08-28T03:13:25.757Z,101253.44
2018-08-28T03:13:47.530Z,101254.01
2018-08-28T03:14:09.309Z,101252.52
2018-08-28T03:14:31.072Z,101253.05
2018-08-28T03:14:52.829Z,101257.59
2018-08-28T03:15:14.579Z,101255.38
2018-08-28T03:15:36.557Z,101252.61
2018-08-28T03:15:58.280Z,101255.76
2018-08-28T03:16:20.025Z,101254.30
2018-08-28T03:16:41.782Z,101258.52
2018-08-28T03:17:03.563Z,101255.76
2018-08-28T03:17:25.338Z,101261.66
2018-08-28T03:17:47.085Z,101255.91
2018-08-28T03:18:11.016Z,101262.97
2018-08-28T03:18:32.816Z,101260.45
2018-08-28T03:18:54.605Z,101261.99
2018-08-28T03:19:16.385Z,101262.38
2018-08-28T03:19:38.166Z,101262.67
2018-08-28T03:19:59.932Z,101270.13
2018-08-28T03:20:21.684Z,101270.90
2018-08-28T03:20:43.462Z,101264.22
2018-08-28T03:21:05.231Z,101267.75
2018-08-28T03:21:26.998Z,101263.06
2018-08-28T03:21:48.762Z,101262.29
2018-08-28T03:22:10.579Z,101273.52
2018-08-28T03:22:32.371Z,101271.05
2018-08-28T03:22:54.310Z,101264.13
2018-08-28T03:23:16.340Z,101274.19
2018-08-28T03:23:38.381Z,101268.20
2018-08-28T03:24:00.152Z,101276.80
2018-08-28T03:24:21.941Z,101269.89
2018-08-28T03:24:43.726Z,101269.69
2018-08-28T03:25:05.505Z,101271.58
2018-08-28T03:25:27.288Z,101270.03
2018-08-28T03:25:49.075Z,101273.42
2018-08-28T03:26:10.900Z,101276.56
2018-08-28T03:26:32.682Z,101271.73
2018-08-28T03:26:54.451Z,101272.11
2018-08-28T03:27:16.198Z,101272.89
2018-08-28T03:27:37.959Z,101275.88
2018-08-28T03:27:59.731Z,101276.51
2018-08-28T03:28:21.487Z,101270.52
2018-08-28T03:28:43.283Z,101276.27
2018-08-28T03:29:05.073Z,101278.73
2018-08-28T03:29:26.865Z,101273.52
2018-08-28T03:29:48.635Z,101278.20
2018-08-28T03:30:10.411Z,101276.51
2018-08-28T03:30:32.223Z,101276.51
2018-08-28T03:30:53.993Z,101275.59
2018-08-28T03:31:15.764Z,101279.12
2018-08-28T03:31:37.554Z,101280.19
2018-08-28T03:31:59.727Z,101277.19
2018-08-28T03:32:21.506Z,101270.66
2018-08-28T03:32:43.283Z,101272.50
2018-08-28T03:33:05.061Z,101272.73
2018-08-28T03:33:26.838Z,101278.05
2018-08-28T03:33:48.633Z,101273.75
2018-08-28T03:34:10.411Z,101280.52
2018-08-28T03:34:32.180Z,101277.76
2018-08-28T03:34:53.960Z,101277.76
2018-08-28T03:35:15.731Z,101279.21
2018-08-28T03:35:37.511Z,101280.66
2018-08-28T03:35:59.276Z,101275.44
2018-08-28T03:36:21.061Z,101279.21
2018-08-28T03:36:42.844Z,101278.05
2018-08-28T03:37:04.596Z,101278.83
2018-08-28T03:37:26.371Z,101276.75
2018-08-28T03:37:48.142Z,101274.67
2018-08-28T03:38:09.912Z,101274.37
2018-08-28T03:38:31.694Z,101274.52
2018-08-28T03:38:53.470Z,101282.36
2018-08-28T03:39:15.235Z,101272.14
2018-08-28T03:39:37.056Z,101272.14
2018-08-28T03:39:58.822Z,101275.30
2018-08-28T03:40:20.582Z,101280.75
2018-08-28T03:40:42.352Z,101274.61
2018-08-28T03:41:04.151Z,101278.67
2018-08-28T03:41:25.916Z,101271.91
2018-08-28T03:41:47.676Z,101277.13
2018-08-28T03:42:09.431Z,101276.75
2018-08-28T03:42:31.206Z,101277.52
2018-08-28T03:42:52.959Z,101280.81
2018-08-28T03:43:14.735Z,101276.60
2018-08-28T03:43:36.505Z,101279.59
2018-08-28T03:43:58.386Z,101280.75
2018-08-28T03:44:20.140Z,101280.61
2018-08-28T03:44:41.986Z,101280.22
2018-08-28T03:45:03.720Z,101278.73
2018-08-28T03:45:25.491Z,101284.87
2018-08-28T03:45:47.255Z,101277.76
2018-08-28T03:46:09.092Z,101279.66
2018-08-28T03:46:30.859Z,101283.22
2018-08-28T03:46:52.630Z,101282.27
2018-08-28T03:47:14.381Z,101282.89
2018-08-28T03:47:36.213Z,101278.97
2018-08-28T03:47:57.979Z,101280.61
2018-08-28T03:48:19.789Z,101281.34
2018-08-28T03:48:41.545Z,101283.57
2018-08-28T03:49:03.339Z,101288.59
2018-08-28T03:49:25.083Z,101281.91
2018-08-28T03:49:46.879Z,101285.83
2018-08-28T03:50:08.669Z,101279.12
2018-08-28T03:50:30.443Z,101281.53
2018-08-28T03:50:52.212Z,101286.90
2018-08-28T03:51:13.998Z,101285.59
2018-08-28T03:51:35.773Z,101285.45
2018-08-28T03:51:57.541Z,101281.58
2018-08-28T03:52:19.313Z,101286.42
2018-08-28T03:52:41.078Z,101287.87
2018-08-28T03:53:02.862Z,101290.67
2018-08-28T03:53:24.629Z,101286.95
2018-08-28T03:53:46.384Z,101286.80
2018-08-28T03:54:36.410Z,101293.57
2018-08-28T03:54:58.176Z,101294.11
2018-08-28T03:55:19.951Z,101292.95
2018-08-28T03:55:41.712Z,101293.48
2018-08-28T03:56:03.499Z,101295.17
2018-08-28T03:56:25.296Z,101298.12
2018-08-28T03:56:47.073Z,101288.64
2018-08-28T03:57:08.855Z,101296.48
2018-08-28T03:57:30.629Z,101293.87
2018-08-28T03:57:52.386Z,101296.09
2018-08-28T03:58:14.148Z,101296.62
2018-08-28T03:58:35.924Z,101297.78
2018-08-28T03:58:57.684Z,101298.70
2018-08-28T03:59:19.475Z,101296.09
2018-08-28T03:59:41.333Z,101296.62
2018-08-28T04:00:03.104Z,101294.20
2018-08-28T04:00:24.893Z,101301.50
2018-08-28T04:00:46.665Z,101296.42
2018-08-28T04:01:08.440Z,101302.81
2018-08-28T04:01:30.219Z,101305.03
2018-08-28T04:01:51.965Z,101302.57
2018-08-28T04:02:13.724Z,101303.88
2018-08-28T04:02:35.485Z,101298.50
2018-08-28T04:02:57.326Z,101300.78
2018-08-28T04:03:19.100Z,101302.09
2018-08-28T04:03:40.888Z,101306.24
2018-08-28T04:04:02.637Z,101307.94
2018-08-28T04:04:24.434Z,101297.87
2018-08-28T04:04:46.205Z,101301.79
2018-08-28T04:05:07.990Z,101300.72
2018-08-28T04:05:29.766Z,101304.10
2018-08-28T04:05:51.537Z,101303.87
2018-08-28T04:06:13.735Z,101303.09
2018-08-28T04:06:35.522Z,101306.24
2018-08-28T04:06:57.284Z,101305.17
2018-08-28T04:07:19.069Z,101309.33
2018-08-28T04:07:40.848Z,101305.02
2018-08-28T04:08:02.618Z,101306.72
2018-08-28T04:08:24.393Z,101301.11
2018-08-28T04:08:46.165Z,101303.33
2018-08-28T04:09:08.443Z,101299.95
2018-08-28T04:09:30.242Z,101301.64
2018-08-28T04:09:52.003Z,101299.80
2018-08-28T04:10:13.783Z,101302.17
2018-08-28T04:10:35.574Z,101304.25